FUL weather

Fullerton Municipal Airport
Fullerton, California, United States

Public forecast

Using degrees Fahrenheit for public forecast. Weather courtesy of forecast.io.

METAR (pilot weather report)

Retrieved 2019/08/17 20:53 UTC (48 minutes ago):

KFUL 172053Z COR 22007KT 10SM FEW015 SCT250 26/14 A2988 RMK AO2 SLP116 T02560139 58013 $

TAF (pilot weather forecast)

Closest forecast is Los Alamitos Army Air Field, 6.1 nm (11.3 km) SW. Retrieved 2019/08/17 21:06 UTC (35 minutes ago):

TAF KSLI 172100Z 1721/1903 22009KT 9999 SCT020 QNH2982INS BECMG 1801/1802 VRB06KT 9000 BR BKN020 QNH2986INS BECMG 1803/1804 VRB06KT 6000 BR BKN015 QNH2986INS BECMG 1809/1810 VRB06KT 3200 BR BKN009 QNH2984INS BECMG 1814/1815 VRB06KT 8000 BR BKN015 QNH2982INS BECMG 1816/1817 VRB06KT 9999 NSW FEW020 QNH2985INS BECMG 1901/1902 VRB06KT 9000 BR BKN020 QNH2986INS TX25/1723Z TN17/1814Z